Flugplatz Helmstedt Rote Wiese (UL)

Hier findest Du alle Informationen zum Flugplatz Helmstedt Rote Wiese (UL).

Informationen für Piloten zum Flugplatz Helmstedt Rote Wiese

Hier findest Du alle relevanten Informationen, die Du als Pilot benötigst, um Helmstedt Rote Wiese anzufliegen.

Flugplatz: Helmstedt Rote Wiese ICAO-Code: UL Flugplatz
Frequenz Turm: 124,465 Mhz GAFOR Gebiet: 8
Frequenz Ground: 124,465 Mhz Mogas: nein
Platzrunde: S 1100 ft Landegebühr: 5,00 €
Platzhöhe: 364 ft Sunrise: 03:10 Uhr UTC
Pisten: 08/26 - 540 m x 28 m, GRAS Sunset: 19:33 Uhr UTC

Mitglieder, die in Helmstedt Rote Wiese fliegen

Flugwetter am Flugplatz Helmstedt Rote Wiese

Die METAR Information stammen aus EDVE (30.63 km entfernt).

METAR Code:
2024/07/03 08:20
EDVE 030820Z 25008KT 220V290 9999 SCT019 BKN025 14/10 Q1010

Flugschulen am Flugplatz Helmstedt Rote Wiese

Am Flugplatz Helmstedt Rote Wiese gibt es leider keine Flugschule.

Benachbarte Flugplätze und Flugschulen

Es gibt 12 weitere Flugplätze in einem Umkreis von 50 km um den Flugplatz Helmstedt Rote Wiese.

Jetzt anmelden

Passwort vergessen

Umfrage Archiv

Wie häufig haltet Ihr die Halbkreisflugregel ein?

Eher häufig!
36.4 %
Immer!
30.2 %
Hin und wieder!
17.1 %
Nie!
9.5 %
Eher selten!
6.9 %
Stimmen: 275 | Diskussion
Anzeige: Roland Aircraft
Statistik Alle Mitglieder

Aktuell sind 21 Besucher online, davon 3 Mitglieder und 18 Gäste.


Mitglieder online:
Christian Reuter  Heli  hotelromeo 

Anzeige: EasyVFR